sensor_id;sensor_type;location;lat;lon;timestamp;pressure;altitude;pressure_sealevel;temperature;humidity
59531;BME280;45349;48.692;8.186;2024-03-02T00:01:08;146978.69;;;3.05;99.67
59531;BME280;45349;48.692;8.186;2024-03-02T00:03:36;146976.22;;;3.04;100.00
59531;BME280;45349;48.692;8.186;2024-03-02T00:06:05;146973.75;;;3.03;100.00
59531;BME280;45349;48.692;8.186;2024-03-02T00:08:31;146947.75;;;2.92;100.00
59531;BME280;45349;48.692;8.186;2024-03-02T00:10:59;146920.50;;;2.80;100.00
59531;BME280;45349;48.692;8.186;2024-03-02T00:13:26;146887.03;;;2.66;100.00
59531;BME280;45349;48.692;8.186;2024-03-02T00:15:54;146884.56;;;2.65;100.00
59531;BME280;45349;48.692;8.186;2024-03-02T00:18:25;146861.03;;;2.56;100.00
59531;BME280;45349;48.692;8.186;2024-03-02T00:20:53;146866.00;;;2.58;100.00
59531;BME280;45349;48.692;8.186;2024-03-02T00:23:23;146856.09;;;2.54;100.00
59531;BME280;45349;48.692;8.186;2024-03-02T00:25:51;146843.69;;;2.48;100.00
59531;BME280;45349;48.692;8.186;2024-03-02T00:28:20;146868.47;;;2.59;100.00
59531;BME280;45349;48.692;8.186;2024-03-02T00:31:02;146885.81;;;2.66;100.00
59531;BME280;45349;48.692;8.186;2024-03-02T00:33:32;146900.69;;;2.72;100.00
59531;BME280;45349;48.692;8.186;2024-03-02T00:35:59;146921.72;;;2.81;100.00
59531;BME280;45349;48.692;8.186;2024-03-02T00:38:28;146908.09;;;2.75;100.00
59531;BME280;45349;48.692;8.186;2024-03-02T00:40:59;146905.63;;;2.74;100.00
59531;BME280;45349;48.692;8.186;2024-03-02T00:43:40;146900.69;;;2.72;100.00
59531;BME280;45349;48.692;8.186;2024-03-02T00:46:07;146920.50;;;2.80;100.00
59531;BME280;45349;48.692;8.186;2024-03-02T00:48:34;146929.16;;;2.84;100.00
59531;BME280;45349;48.692;8.186;2024-03-02T00:51:03;146898.19;;;2.71;100.00
59531;BME280;45349;48.692;8.186;2024-03-02T00:53:31;146889.50;;;2.68;100.00
59531;BME280;45349;48.692;8.186;2024-03-02T00:55:59;146873.44;;;2.61;100.00
59531;BME280;45349;48.692;8.186;2024-03-02T00:58:26;146862.31;;;2.56;100.00
59531;BME280;45349;48.692;8.186;2024-03-02T01:00:52;146859.81;;;2.55;100.00
59531;BME280;45349;48.692;8.186;2024-03-02T01:03:19;146848.66;;;2.50;100.00
59531;BME280;45349;48.692;8.186;2024-03-02T01:05:46;146818.94;;;2.38;100.00
59531;BME280;45349;48.692;8.186;2024-03-02T01:08:12;146812.75;;;2.35;100.00
59531;BME280;45349;48.692;8.186;2024-03-02T01:10:41;146792.94;;;2.27;100.00
59531;BME280;45349;48.692;8.186;2024-03-02T01:13:08;146812.75;;;2.35;100.00
59531;BME280;45349;48.692;8.186;2024-03-02T01:15:35;146789.22;;;2.26;100.00
59531;BME280;45349;48.692;8.186;2024-03-02T01:18:02;146801.59;;;2.31;100.00
59531;BME280;45349;48.692;8.186;2024-03-02T01:20:29;146790.47;;;2.26;100.00
59531;BME280;45349;48.692;8.186;2024-03-02T01:22:56;146790.47;;;2.26;100.00
59531;BME280;45349;48.692;8.186;2024-03-02T01:25:22;146794.16;;;2.28;100.00
59531;BME280;45349;48.692;8.186;2024-03-02T01:27:51;146776.81;;;2.20;100.00
59531;BME280;45349;48.692;8.186;2024-03-02T01:30:18;146769.41;;;2.17;100.00
59531;BME280;45349;48.692;8.186;2024-03-02T01:32:45;146758.28;;;2.13;100.00
59531;BME280;45349;48.692;8.186;2024-03-02T01:35:11;146770.66;;;2.18;100.00
59531;BME280;45349;48.692;8.186;2024-03-02T01:37:38;146765.72;;;2.16;100.00
59531;BME280;45349;48.692;8.186;2024-03-02T01:40:06;146769.41;;;2.17;100.00
59531;BME280;45349;48.692;8.186;2024-03-02T01:42:35;146770.66;;;2.18;100.00
59531;BME280;45349;48.692;8.186;2024-03-02T01:45:04;146786.72;;;2.25;100.00
59531;BME280;45349;48.692;8.186;2024-03-02T01:47:31;146788.00;;;2.25;100.00
59531;BME280;45349;48.692;8.186;2024-03-02T01:49:59;146778.09;;;2.21;100.00
59531;BME280;45349;48.692;8.186;2024-03-02T01:52:26;146815.25;;;2.36;100.00
59531;BME280;45349;48.692;8.186;2024-03-02T01:54:53;146822.66;;;2.40;100.00
59531;BME280;45349;48.692;8.186;2024-03-02T01:57:20;146836.28;;;2.45;100.00
59531;BME280;45349;48.692;8.186;2024-03-02T01:59:47;146821.41;;;2.39;100.00
59531;BME280;45349;48.692;8.186;2024-03-02T02:02:15;146812.75;;;2.35;100.00
59531;BME280;45349;48.692;8.186;2024-03-02T02:04:42;146818.94;;;2.38;100.00
59531;BME280;45349;48.692;8.186;2024-03-02T02:07:09;146813.97;;;2.36;100.00
59531;BME280;45349;48.692;8.186;2024-03-02T02:09:36;146816.44;;;2.37;100.00
59531;BME280;45349;48.692;8.186;2024-03-02T02:12:03;146841.22;;;2.47;100.00
59531;BME280;45349;48.692;8.186;2024-03-02T02:14:32;146832.56;;;2.44;100.00
59531;BME280;45349;48.692;8.186;2024-03-02T02:16:59;146856.09;;;2.54;100.00
59531;BME280;45349;48.692;8.186;2024-03-02T02:19:27;146854.88;;;2.53;100.00
59531;BME280;45349;48.692;8.186;2024-03-02T02:21:55;146852.41;;;2.52;100.00
59531;BME280;45349;48.692;8.186;2024-03-02T02:24:21;146847.44;;;2.50;100.00
59531;BME280;45349;48.692;8.186;2024-03-02T02:26:48;146853.59;;;2.53;100.00
59531;BME280;45349;48.692;8.186;2024-03-02T02:29:15;146832.56;;;2.44;100.00
59531;BME280;45349;48.692;8.186;2024-03-02T02:31:42;146842.47;;;2.48;100.00
59531;BME280;45349;48.692;8.186;2024-03-02T02:34:09;146840.00;;;2.47;100.00
59531;BME280;45349;48.692;8.186;2024-03-02T02:36:37;146826.34;;;2.41;100.00
59531;BME280;45349;48.692;8.186;2024-03-02T02:39:08;146795.44;;;2.28;100.00
59531;BME280;45349;48.692;8.186;2024-03-02T02:41:36;146802.84;;;2.31;100.00
59531;BME280;45349;48.692;8.186;2024-03-02T02:44:03;146774.34;;;2.19;100.00
59531;BME280;45349;48.692;8.186;2024-03-02T02:46:30;146769.41;;;2.17;100.00
59531;BME280;45349;48.692;8.186;2024-03-02T02:48:56;146769.41;;;2.17;100.00
59531;BME280;45349;48.692;8.186;2024-03-02T02:51:23;146757.00;;;2.12;100.00
59531;BME280;45349;48.692;8.186;2024-03-02T02:53:50;146739.72;;;2.05;100.00
59531;BME280;45349;48.692;8.186;2024-03-02T02:56:18;146712.50;;;1.94;100.00
59531;BME280;45349;48.692;8.186;2024-03-02T02:58:45;146739.72;;;2.05;100.00
59531;BME280;45349;48.692;8.186;2024-03-02T03:01:12;146731.03;;;2.01;100.00
59531;BME280;45349;48.692;8.186;2024-03-02T03:03:38;146743.41;;;2.06;100.00
59531;BME280;45349;48.692;8.186;2024-03-02T03:06:06;146722.38;;;1.98;100.00
59531;BME280;45349;48.692;8.186;2024-03-02T03:08:32;146695.16;;;1.86;100.00
59531;BME280;45349;48.692;8.186;2024-03-02T03:10:59;146682.78;;;1.81;100.00
59531;BME280;45349;48.692;8.186;2024-03-02T03:13:27;146719.91;;;1.97;100.00
59531;BME280;45349;48.692;8.186;2024-03-02T03:15:54;146726.09;;;1.99;100.00
59531;BME280;45349;48.692;8.186;2024-03-02T03:18:20;146726.09;;;1.99;100.00
59531;BME280;45349;48.692;8.186;2024-03-02T03:20:47;146755.81;;;2.12;100.00
59531;BME280;45349;48.692;8.186;2024-03-02T03:23:14;146796.63;;;2.29;100.00
59531;BME280;45349;48.692;8.186;2024-03-02T03:25:41;146786.72;;;2.25;100.00
59531;BME280;45349;48.692;8.186;2024-03-02T03:28:08;146796.63;;;2.29;100.00
59531;BME280;45349;48.692;8.186;2024-03-02T03:30:37;146769.41;;;2.17;100.00
59531;BME280;45349;48.692;8.186;2024-03-02T03:33:04;146789.22;;;2.26;100.00
59531;BME280;45349;48.692;8.186;2024-03-02T03:35:31;146773.13;;;2.19;100.00
59531;BME280;45349;48.692;8.186;2024-03-02T03:37:58;146776.81;;;2.20;100.00
59531;BME280;45349;48.692;8.186;2024-03-02T03:40:25;146801.59;;;2.31;100.00
59531;BME280;45349;48.692;8.186;2024-03-02T03:42:52;146813.97;;;2.36;100.00
59531;BME280;45349;48.692;8.186;2024-03-02T03:45:18;146823.88;;;2.40;100.00
59531;BME280;45349;48.692;8.186;2024-03-02T03:47:46;146873.44;;;2.61;100.00
59531;BME280;45349;48.692;8.186;2024-03-02T03:50:13;146861.03;;;2.56;100.00
59531;BME280;45349;48.692;8.186;2024-03-02T03:52:39;146890.78;;;2.68;100.00
59531;BME280;45349;48.692;8.186;2024-03-02T03:55:07;146875.91;;;2.62;100.00
59531;BME280;45349;48.692;8.186;2024-03-02T03:57:33;146901.88;;;2.73;100.00
59531;BME280;45349;48.692;8.186;2024-03-02T04:00:00;146895.72;;;2.70;100.00
59531;BME280;45349;48.692;8.186;2024-03-02T04:02:37;146913.06;;;2.77;100.00
59531;BME280;45349;48.692;8.186;2024-03-02T04:05:06;146940.31;;;2.89;100.00
59531;BME280;45349;48.692;8.186;2024-03-02T04:07:35;147004.75;;;3.16;100.00
59531;BME280;45349;48.692;8.186;2024-03-02T04:10:07;147090.25;;;3.51;100.00
59531;BME280;45349;48.692;8.186;2024-03-02T04:12:35;147091.44;;;3.52;100.00
59531;BME280;45349;48.692;8.186;2024-03-02T04:15:02;147084.00;;;3.49;100.00
59531;BME280;45349;48.692;8.186;2024-03-02T04:17:31;147137.28;;;3.71;100.00
59531;BME280;45349;48.692;8.186;2024-03-02T04:19:58;147157.13;;;3.79;99.99
59531;BME280;45349;48.692;8.186;2024-03-02T04:22:26;147169.53;;;3.84;98.75
59531;BME280;45349;48.692;8.186;2024-03-02T04:24:53;147183.19;;;3.90;99.22
59531;BME280;45349;48.692;8.186;2024-03-02T04:27:20;147150.94;;;3.77;100.00
59531;BME280;45349;48.692;8.186;2024-03-02T04:29:46;147120.00;;;3.64;100.00
59531;BME280;45349;48.692;8.186;2024-03-02T04:32:13;147121.19;;;3.64;100.00
59531;BME280;45349;48.692;8.186;2024-03-02T04:34:40;147088.97;;;3.51;100.00
59531;BME280;45349;48.692;8.186;2024-03-02T04:37:06;147030.75;;;3.27;100.00
59531;BME280;45349;48.692;8.186;2024-03-02T04:39:35;146983.66;;;3.07;100.00
59531;BME280;45349;48.692;8.186;2024-03-02T04:42:02;146976.22;;;3.04;100.00
59531;BME280;45349;48.692;8.186;2024-03-02T04:44:29;146952.72;;;2.94;100.00
59531;BME280;45349;48.692;8.186;2024-03-02T04:46:56;146935.38;;;2.87;100.00
59531;BME280;45349;48.692;8.186;2024-03-02T04:49:23;146906.84;;;2.75;100.00
59531;BME280;45349;48.692;8.186;2024-03-02T04:51:50;146866.00;;;2.58;100.00
59531;BME280;45349;48.692;8.186;2024-03-02T04:54:16;146847.44;;;2.50;100.00
59531;BME280;45349;48.692;8.186;2024-03-02T04:56:44;146837.53;;;2.46;100.00
59531;BME280;45349;48.692;8.186;2024-03-02T04:59:15;146797.91;;;2.29;100.00
59531;BME280;45349;48.692;8.186;2024-03-02T05:01:41;146758.28;;;2.13;100.00
59531;BME280;45349;48.692;8.186;2024-03-02T05:04:08;146739.72;;;2.05;100.00
59531;BME280;45349;48.692;8.186;2024-03-02T05:06:37;146708.75;;;1.92;100.00
59531;BME280;45349;48.692;8.186;2024-03-02T05:09:04;146700.09;;;1.88;100.00
59531;BME280;45349;48.692;8.186;2024-03-02T05:11:31;146692.69;;;1.85;100.00
59531;BME280;45349;48.692;8.186;2024-03-02T05:14:19;146688.94;;;1.84;100.00
59531;BME280;45349;48.692;8.186;2024-03-02T05:16:46;146688.94;;;1.84;100.00
59531;BME280;45349;48.692;8.186;2024-03-02T05:19:12;146692.69;;;1.85;100.00
59531;BME280;45349;48.692;8.186;2024-03-02T05:21:38;146729.81;;;2.01;100.00
59531;BME280;45349;48.692;8.186;2024-03-02T05:24:05;146708.75;;;1.92;100.00
59531;BME280;45349;48.692;8.186;2024-03-02T05:26:32;146731.03;;;2.01;100.00
59531;BME280;45349;48.692;8.186;2024-03-02T05:28:58;146748.38;;;2.09;100.00
59531;BME280;45349;48.692;8.186;2024-03-02T05:31:26;146732.28;;;2.02;100.00
59531;BME280;45349;48.692;8.186;2024-03-02T05:33:53;146744.69;;;2.07;100.00
59531;BME280;45349;48.692;8.186;2024-03-02T05:36:20;146727.34;;;2.00;100.00
59531;BME280;45349;48.692;8.186;2024-03-02T05:38:47;146713.69;;;1.94;100.00
59531;BME280;45349;48.692;8.186;2024-03-02T05:41:13;146692.69;;;1.85;100.00
59531;BME280;45349;48.692;8.186;2024-03-02T05:43:40;146680.31;;;1.80;100.00
59531;BME280;45349;48.692;8.186;2024-03-02T05:46:07;146671.63;;;1.76;100.00
59531;BME280;45349;48.692;8.186;2024-03-02T05:48:35;146659.22;;;1.71;100.00
59531;BME280;45349;48.692;8.186;2024-03-02T05:51:02;146660.50;;;1.72;100.00
59531;BME280;45349;48.692;8.186;2024-03-02T05:53:28;146648.13;;;1.67;100.00
59531;BME280;45349;48.692;8.186;2024-03-02T05:55:55;146656.75;;;1.70;100.00
59531;BME280;45349;48.692;8.186;2024-03-02T05:58:22;146667.94;;;1.75;100.00
59531;BME280;45349;48.692;8.186;2024-03-02T06:00:59;146676.56;;;1.79;100.00
59531;BME280;45349;48.692;8.186;2024-03-02T06:03:25;146662.97;;;1.73;100.00
59531;BME280;45349;48.692;8.186;2024-03-02T06:05:55;146662.97;;;1.73;100.00
59531;BME280;45349;48.692;8.186;2024-03-02T06:08:21;146672.88;;;1.77;100.00
59531;BME280;45349;48.692;8.186;2024-03-02T06:10:48;146691.41;;;1.85;100.00
59531;BME280;45349;48.692;8.186;2024-03-02T06:13:15;146692.69;;;1.85;100.00
59531;BME280;45349;48.692;8.186;2024-03-02T06:15:41;146698.84;;;1.88;100.00
59531;BME280;45349;48.692;8.186;2024-03-02T06:18:09;146707.53;;;1.91;100.00
59531;BME280;45349;48.692;8.186;2024-03-02T06:20:35;146695.16;;;1.86;100.00
59531;BME280;45349;48.692;8.186;2024-03-02T06:23:04;146711.22;;;1.93;100.00
59531;BME280;45349;48.692;8.186;2024-03-02T06:25:30;146697.63;;;1.87;100.00
59531;BME280;45349;48.692;8.186;2024-03-02T06:27:57;146701.31;;;1.89;100.00
59531;BME280;45349;48.692;8.186;2024-03-02T06:30:24;146734.78;;;2.03;100.00
59531;BME280;45349;48.692;8.186;2024-03-02T06:32:50;146740.94;;;2.05;100.00
59531;BME280;45349;48.692;8.186;2024-03-02T06:35:21;146757.00;;;2.12;100.00
59531;BME280;45349;48.692;8.186;2024-03-02T06:37:47;146778.09;;;2.21;100.00
59531;BME280;45349;48.692;8.186;2024-03-02T06:40:16;146786.72;;;2.25;100.00
59531;BME280;45349;48.692;8.186;2024-03-02T06:42:42;146837.53;;;2.46;100.00
59531;BME280;45349;48.692;8.186;2024-03-02T06:45:09;146853.59;;;2.53;100.00
59531;BME280;45349;48.692;8.186;2024-03-02T06:47:36;146888.28;;;2.67;100.00
59531;BME280;45349;48.692;8.186;2024-03-02T06:50:03;146904.38;;;2.74;100.00
59531;BME280;45349;48.692;8.186;2024-03-02T06:52:30;146939.06;;;2.88;100.00
59531;BME280;45349;48.692;8.186;2024-03-02T06:54:56;147010.91;;;3.18;100.00
59531;BME280;45349;48.692;8.186;2024-03-02T06:57:25;147076.56;;;3.46;100.00
59531;BME280;45349;48.692;8.186;2024-03-02T06:59:51;147131.13;;;3.68;100.00
59531;BME280;45349;48.692;8.186;2024-03-02T07:02:20;147198.06;;;3.96;100.00
59531;BME280;45349;48.692;8.186;2024-03-02T07:04:48;147282.34;;;4.32;100.00
59531;BME280;45349;48.692;8.186;2024-03-02T07:07:16;147336.91;;;4.54;100.00
59531;BME280;45349;48.692;8.186;2024-03-02T07:09:43;147382.84;;;4.73;100.00
59531;BME280;45349;48.692;8.186;2024-03-02T07:12:09;147441.13;;;4.98;100.00
59531;BME280;45349;48.692;8.186;2024-03-02T07:14:37;147504.38;;;5.24;100.00
59531;BME280;45349;48.692;8.186;2024-03-02T07:17:21;147542.84;;;5.40;100.00
59531;BME280;45349;48.692;8.186;2024-03-02T07:19:48;147576.38;;;5.54;100.00
59531;BME280;45349;48.692;8.186;2024-03-02T07:22:15;147596.22;;;5.63;98.71
59531;BME280;45349;48.692;8.186;2024-03-02T07:24:41;147594.97;;;5.62;98.27
59531;BME280;45349;48.692;8.186;2024-03-02T07:27:08;147606.16;;;5.67;96.11
59531;BME280;45349;48.692;8.186;2024-03-02T07:29:35;147607.38;;;5.67;96.61
59531;BME280;45349;48.692;8.186;2024-03-02T07:32:04;147604.91;;;5.66;97.30
59531;BME280;45349;48.692;8.186;2024-03-02T07:34:31;147560.22;;;5.47;98.07
59531;BME280;45349;48.692;8.186;2024-03-02T07:36:58;147493.25;;;5.20;96.35
59531;BME280;45349;48.692;8.186;2024-03-02T07:39:25;147485.78;;;5.16;96.61
59531;BME280;45349;48.692;8.186;2024-03-02T07:41:51;147459.72;;;5.06;96.88
59531;BME280;45349;48.692;8.186;2024-03-02T07:44:18;147441.13;;;4.98;98.23
59531;BME280;45349;48.692;8.186;2024-03-02T07:46:46;147410.06;;;4.85;99.69
59531;BME280;45349;48.692;8.186;2024-03-02T07:49:16;147418.78;;;4.88;100.00
59531;BME280;45349;48.692;8.186;2024-03-02T07:51:43;147407.59;;;4.84;100.00
59531;BME280;45349;48.692;8.186;2024-03-02T07:54:10;147413.81;;;4.86;100.00
59531;BME280;45349;48.692;8.186;2024-03-02T07:56:37;147411.34;;;4.85;100.00
59531;BME280;45349;48.692;8.186;2024-03-02T07:59:04;147438.63;;;4.97;100.00
59531;BME280;45349;48.692;8.186;2024-03-02T08:01:32;147459.72;;;5.06;100.00
59531;BME280;45349;48.692;8.186;2024-03-02T08:04:00;147472.13;;;5.11;100.00
59531;BME280;45349;48.692;8.186;2024-03-02T08:06:28;147495.72;;;5.21;100.00
59531;BME280;45349;48.692;8.186;2024-03-02T08:08:55;147511.84;;;5.27;100.00
59531;BME280;45349;48.692;8.186;2024-03-02T08:11:22;147549.06;;;5.43;100.00
59531;BME280;45349;48.692;8.186;2024-03-02T08:13:48;147598.72;;;5.64;99.85
59531;BME280;45349;48.692;8.186;2024-03-02T08:16:15;147639.66;;;5.81;99.28
59531;BME280;45349;48.692;8.186;2024-03-02T08:18:45;147685.56;;;6.00;99.00
59531;BME280;45349;48.692;8.186;2024-03-02T08:21:12;147721.66;;;6.15;98.63
59531;BME280;45349;48.692;8.186;2024-03-02T08:23:43;147750.19;;;6.27;97.80
59531;BME280;45349;48.692;8.186;2024-03-02T08:26:10;147771.34;;;6.35;97.46
59531;BME280;45349;48.692;8.186;2024-03-02T08:28:37;147791.16;;;6.44;97.36
59531;BME280;45349;48.692;8.186;2024-03-02T08:31:06;147808.53;;;6.51;94.65
59531;BME280;45349;48.692;8.186;2024-03-02T08:33:32;147796.13;;;6.46;94.90
59531;BME280;45349;48.692;8.186;2024-03-02T08:35:59;147817.25;;;6.55;95.43
59531;BME280;45349;48.692;8.186;2024-03-02T08:38:26;147824.72;;;6.58;94.63
59531;BME280;45349;48.692;8.186;2024-03-02T08:40:54;147844.59;;;6.66;93.79
59531;BME280;45349;48.692;8.186;2024-03-02T08:43:21;147840.84;;;6.64;96.36
59531;BME280;45349;48.692;8.186;2024-03-02T08:45:48;147858.22;;;6.72;95.33
59531;BME280;45349;48.692;8.186;2024-03-02T08:48:16;147880.59;;;6.81;94.45
59531;BME280;45349;48.692;8.186;2024-03-02T08:50:42;147898.00;;;6.88;94.68
59531;BME280;45349;48.692;8.186;2024-03-02T08:53:09;147905.44;;;6.91;94.04
59531;BME280;45349;48.692;8.186;2024-03-02T08:55:36;147904.19;;;6.91;95.38
59531;BME280;45349;48.692;8.186;2024-03-02T08:58:04;147925.31;;;7.00;93.63
59531;BME280;45349;48.692;8.186;2024-03-02T09:00:30;147952.66;;;7.11;94.39
59531;BME280;45349;48.692;8.186;2024-03-02T09:02:58;147975.03;;;7.20;93.90
59531;BME280;45349;48.692;8.186;2024-03-02T09:05:25;148024.75;;;7.41;93.07
59531;BME280;45349;48.692;8.186;2024-03-02T09:07:52;148042.09;;;7.48;92.40
59531;BME280;45349;48.692;8.186;2024-03-02T09:10:19;148055.78;;;7.54;92.35
59531;BME280;45349;48.692;8.186;2024-03-02T09:12:46;148050.81;;;7.52;92.31
59531;BME280;45349;48.692;8.186;2024-03-02T09:15:15;148076.91;;;7.63;91.49
59531;BME280;45349;48.692;8.186;2024-03-02T09:17:42;148093.09;;;7.70;89.66
59531;BME280;45349;48.692;8.186;2024-03-02T09:20:10;148064.47;;;7.58;90.47
59531;BME280;45349;48.692;8.186;2024-03-02T09:22:36;148095.56;;;7.71;90.03
59531;BME280;45349;48.692;8.186;2024-03-02T09:25:03;148112.97;;;7.78;90.94
59531;BME280;45349;48.692;8.186;2024-03-02T09:27:30;148150.28;;;7.93;90.21
59531;BME280;45349;48.692;8.186;2024-03-02T09:29:57;148186.31;;;8.08;88.69
59531;BME280;45349;48.692;8.186;2024-03-02T09:32:25;148173.88;;;8.03;87.85
59531;BME280;45349;48.692;8.186;2024-03-02T09:34:52;148216.16;;;8.21;88.21
59531;BME280;45349;48.692;8.186;2024-03-02T09:37:18;148223.63;;;8.24;87.27
59531;BME280;45349;48.692;8.186;2024-03-02T09:39:45;148254.69;;;8.37;86.08
59531;BME280;45349;48.692;8.186;2024-03-02T09:42:12;148272.09;;;8.44;87.70
59531;BME280;45349;48.692;8.186;2024-03-02T09:44:40;148293.28;;;8.53;86.06
59531;BME280;45349;48.692;8.186;2024-03-02T09:47:07;148326.88;;;8.67;84.68
59531;BME280;45349;48.692;8.186;2024-03-02T09:49:35;148344.28;;;8.74;83.90
59531;BME280;45349;48.692;8.186;2024-03-02T09:52:03;148354.25;;;8.78;82.32
59531;BME280;45349;48.692;8.186;2024-03-02T09:54:31;148380.34;;;8.89;82.54
59531;BME280;45349;48.692;8.186;2024-03-02T09:56:57;148428.84;;;9.09;82.54
59531;BME280;45349;48.692;8.186;2024-03-02T09:59:24;148417.69;;;9.05;80.83
59531;BME280;45349;48.692;8.186;2024-03-02T10:01:57;148421.38;;;9.06;82.17
59531;BME280;45349;48.692;8.186;2024-03-02T10:04:25;148426.38;;;9.08;80.89
59531;BME280;45349;48.692;8.186;2024-03-02T10:07:09;148452.53;;;9.19;81.50
59531;BME280;45349;48.692;8.186;2024-03-02T10:09:36;148482.38;;;9.32;80.16
59531;BME280;45349;48.692;8.186;2024-03-02T10:12:03;148496.06;;;9.37;79.90
59531;BME280;45349;48.692;8.186;2024-03-02T10:14:31;148509.78;;;9.43;79.85
59531;BME280;45349;48.692;8.186;2024-03-02T10:17:02;148550.81;;;9.60;79.94
59531;BME280;45349;48.692;8.186;2024-03-02T10:19:29;148538.38;;;9.55;79.54
59531;BME280;45349;48.692;8.186;2024-03-02T10:21:58;148564.50;;;9.66;79.55
59531;BME280;45349;48.692;8.186;2024-03-02T10:24:26;148589.38;;;9.76;79.23
59531;BME280;45349;48.692;8.186;2024-03-02T10:26:53;148610.56;;;9.85;79.49
59531;BME280;45349;48.692;8.186;2024-03-02T10:29:21;148613.06;;;9.86;79.16
59531;BME280;45349;48.692;8.186;2024-03-02T10:31:48;148649.16;;;10.01;79.10
59531;BME280;45349;48.692;8.186;2024-03-02T10:34:15;148665.31;;;10.08;79.09
59531;BME280;45349;48.692;8.186;2024-03-02T10:36:43;148698.94;;;10.22;78.69
59531;BME280;45349;48.692;8.186;2024-03-02T10:39:12;148743.84;;;10.40;76.13
59531;BME280;45349;48.692;8.186;2024-03-02T10:41:40;148784.91;;;10.57;74.94
59531;BME280;45349;48.692;8.186;2024-03-02T10:44:08;148794.88;;;10.61;75.75
59531;BME280;45349;48.692;8.186;2024-03-02T10:46:36;148821.00;;;10.72;76.02
59531;BME280;45349;48.692;8.186;2024-03-02T10:49:05;148844.69;;;10.82;75.23
59531;BME280;45349;48.692;8.186;2024-03-02T10:51:34;148864.63;;;10.90;75.26
59531;BME280;45349;48.692;8.186;2024-03-02T10:54:03;148865.84;;;10.91;74.92
59531;BME280;45349;48.692;8.186;2024-03-02T10:56:32;148870.84;;;10.93;75.88
59531;BME280;45349;48.692;8.186;2024-03-02T10:59:03;148893.28;;;11.02;74.35
59531;BME280;45349;48.692;8.186;2024-03-02T11:01:33;148919.41;;;11.13;73.14
59531;BME280;45349;48.692;8.186;2024-03-02T11:04:02;148945.59;;;11.24;73.11
59531;BME280;45349;48.692;8.186;2024-03-02T11:06:31;148971.75;;;11.35;72.84
59531;BME280;45349;48.692;8.186;2024-03-02T11:09:02;149006.63;;;11.49;72.62
59531;BME280;45349;48.692;8.186;2024-03-02T11:11:40;148979.22;;;11.38;71.86
59531;BME280;45349;48.692;8.186;2024-03-02T11:14:13;148956.78;;;11.29;71.73
59531;BME280;45349;48.692;8.186;2024-03-02T11:16:40;148955.56;;;11.28;70.07
59531;BME280;45349;48.692;8.186;2024-03-02T11:19:10;148958.06;;;11.29;70.85
59531;BME280;45349;48.692;8.186;2024-03-02T11:21:37;148960.56;;;11.30;70.49
59531;BME280;45349;48.692;8.186;2024-03-02T11:24:28;148966.75;;;11.33;72.27
59531;BME280;45349;48.692;8.186;2024-03-02T11:26:58;148987.97;;;11.42;70.06
59531;BME280;45349;48.692;8.186;2024-03-02T11:29:45;149004.16;;;11.48;70.35
59531;BME280;45349;48.692;8.186;2024-03-02T11:32:20;149044.03;;;11.65;70.09
59531;BME280;45349;48.692;8.186;2024-03-02T11:34:49;149062.72;;;11.73;69.22
59531;BME280;45349;48.692;8.186;2024-03-02T11:37:18;149057.72;;;11.71;69.38
59531;BME280;45349;48.692;8.186;2024-03-02T11:39:46;149101.38;;;11.89;68.98
59531;BME280;45349;48.692;8.186;2024-03-02T11:42:15;149132.56;;;12.02;68.35
59531;BME280;45349;48.692;8.186;2024-03-02T11:44:43;149120.06;;;11.96;67.71
59531;BME280;45349;48.692;8.186;2024-03-02T11:47:13;149164.97;;;12.15;67.46
59531;BME280;45349;48.692;8.186;2024-03-02T11:49:43;149187.44;;;12.24;67.64
59531;BME280;45349;48.692;8.186;2024-03-02T11:52:11;149222.34;;;12.39;66.98
59531;BME280;45349;48.692;8.186;2024-03-02T11:54:39;149265.97;;;12.57;64.73
59531;BME280;45349;48.692;8.186;2024-03-02T11:57:06;149241.03;;;12.47;64.66
59531;BME280;45349;48.692;8.186;2024-03-02T11:59:33;149323.34;;;12.81;63.67
59531;BME280;45349;48.692;8.186;2024-03-02T12:02:00;149364.50;;;12.98;62.26
59531;BME280;45349;48.692;8.186;2024-03-02T12:04:29;149389.44;;;13.08;62.00
59531;BME280;45349;48.692;8.186;2024-03-02T12:06:58;149430.59;;;13.25;60.18
59531;BME280;45349;48.692;8.186;2024-03-02T12:09:29;149429.38;;;13.25;60.49
59531;BME280;45349;48.692;8.186;2024-03-02T12:12:03;149488.03;;;13.49;62.35
59531;BME280;45349;48.692;8.186;2024-03-02T12:14:30;149514.25;;;13.60;60.32
59531;BME280;45349;48.692;8.186;2024-03-02T12:16:57;149550.44;;;13.75;61.66
59531;BME280;45349;48.692;8.186;2024-03-02T12:19:25;149586.59;;;13.90;61.93
59531;BME280;45349;48.692;8.186;2024-03-02T12:21:53;149584.09;;;13.89;59.78
59531;BME280;45349;48.692;8.186;2024-03-02T12:24:21;149655.28;;;14.19;59.18
59531;BME280;45349;48.692;8.186;2024-03-02T12:26:49;149679.00;;;14.28;59.74
59531;BME280;45349;48.692;8.186;2024-03-02T12:29:16;149651.53;;;14.17;58.85
59531;BME280;45349;48.692;8.186;2024-03-02T12:31:43;149674.00;;;14.26;55.25
59531;BME280;45349;48.692;8.186;2024-03-02T12:34:12;149662.78;;;14.22;56.68
59531;BME280;45349;48.692;8.186;2024-03-02T12:36:40;149677.75;;;14.28;55.96
59531;BME280;45349;48.692;8.186;2024-03-02T12:39:09;149696.47;;;14.36;56.25
59531;BME280;45349;48.692;8.186;2024-03-02T12:41:36;149693.97;;;14.35;55.38
59531;BME280;45349;48.692;8.186;2024-03-02T12:44:04;149713.94;;;14.43;58.88
59531;BME280;45349;48.692;8.186;2024-03-02T12:46:30;149766.41;;;14.65;56.00
59531;BME280;45349;48.692;8.186;2024-03-02T12:48:57;149778.94;;;14.70;55.45
59531;BME280;45349;48.692;8.186;2024-03-02T12:51:31;149821.34;;;14.87;55.67
59531;BME280;45349;48.692;8.186;2024-03-02T12:53:58;149798.91;;;14.78;57.00
59531;BME280;45349;48.692;8.186;2024-03-02T12:56:27;149825.13;;;14.89;55.59